FMMISBKP

Guest
Details From FMMI - Ivato
To SBKP - Sao Paulo Viracopos
Flight Number -
Tags Generated
Created
Modified
Stats Distance 5,213 nm / 9,655 km
Max Altitude 0 ft / 0 m
Waypoints 5
Social Downloads 0
Likes 0
Share VATSIM

Download

Looking for another format? Having issues loading an existing format? Contact us
Advertisement - Login to hide

Notes

Generated

Route

FMMI NESAG MH CPN SBKP

ID Type Via Altitude Latitude Longitude Leg Dist Tot Dist Heading (true) Name
O FMMI APT - 0 ft / 0 m -18.79479˚ 47.46427˚ - 0 nm - -
NESAG FIX - 0 ft / 0 m -24.94672˚ 28.85098˚ 1099 nm 1099 nm 247° / 254° -
MH NDB - 0 ft / 0 m -25.74143˚ 25.57499˚ 184 nm 1284 nm 254° / 256° MAFIKENG NDB
CPN VOR - 0 ft / 0 m -23.00871˚ -47.12904˚ 3927 nm 5211 nm 255° / 289° CAMPINAS VOR-DME
O SBKP APT - 0 ft / 0 m -22.99843˚ -47.14702˚ 1 nm 5213 nm 302° / 302° -

Altitude Profile

Advertisement - Login to hide

Weather


0- 5 10 15 20 25 30 35+ Temperature / ° C

Clouds and Precipitation
Forecast for 2017-12-17 12:00 UTC. Updated an hour ago

Ground ~20,000 ft ~40,000 ft Winds

FMMI

Details ICAO FMMI (TNR)
Name IVATO
Region Comoros, Mayotte, Réunion and Madagascar
Timezone Indian/Antananarivo (UTC+3.0)
Stats Elevation 4,198 ft / 1,280 m (AMSL)
Location -18.796950° 47.478806°
Runways 1
Magnetic Variation 15.161° W

METAR

FMMI 170830Z 14007KT 100V190 9999 BKN017 SCT020 23/19 Q1021 NOSIG

Decode

TAF

Not found

Departure Runways

ID Width Length Bearing (true) Bearing (mag) Surface Threshold Offset Overrun Length
11 148 ft / 45 m 10,167 ft / 3,099 m 98.92° 114.08° Asphalt 0 ft / 0 m 90 ft / 27 m
29 148 ft / 45 m 10,167 ft / 3,099 m 278.91° 294.07° Asphalt 0 ft / 0 m 90 ft / 27 m

SBKP

Details ICAO SBKP (VCP)
Name Sao Paulo Viracopos
Region Brazil
Timezone America/Sao_Paulo (UTC-2.0)
Stats Elevation 2,170 ft / 661 m (AMSL)
Location -23.007383° -47.134522°
Runways 1
Magnetic Variation 21.195° W

METAR

SBKP 170800Z 05006KT CAVOK 21/16 Q1014

Decode

TAF

TAF SBKP 170105Z 1706/1806 12005KT CAVOK TN20/1709Z TX32/1718Z BECMG 1711/1713 03005KT BECMG 1714/1716 31010KT SCT045 PROB30 1719/1721 06010KT 8000 TSRA SCT045 FEW050CB BECMG 1721/1723 11005KT CAVOK RMK PGF

Decode

Destination Runways

ID Width Length Bearing (true) Bearing (mag) Surface Threshold Offset Overrun Length
15 148 ft / 45 m 10,639 ft / 3,243 m 127.91° 149.11° Asphalt 0 ft / 0 m 205 ft / 62 m
33 148 ft / 45 m 10,639 ft / 3,243 m 307.90° 329.10° Asphalt 0 ft / 0 m 205 ft / 62 m

Approach Navaids

Runway Type Ident Frequency Range Bearing (true) Bearing (mag) Slope Elevation
15 Localiser IKP 110.30 MHz 18 nm / 33 km 127.95° 149.15° - 2,170 ft / 661 m (AMSL)
15 Glidescope IKP 110.30 MHz 10 nm / 19 km 127.90° 149.10° 3.00° 2,170 ft / 661 m (AMSL)

Popular Alternatives